Time;durP1;ratioP1;P1;durP2;ratioP2;P2;SDS_P1;SDS_P2;PMS_P1;PMS_P2;Temp;Humidity;BMP_temperature;BMP_pressure;BME280_temperature;BME280_humidity;BME280_pressure;Samples;Min_cycle;Max_cycle;Signal;HPM_P1;HPM_P2
2022/12/01 00:01:06;;;;;;;9.33;6.90;;;;;;;3.88;55.47;100503.56;10543655;28;20230;-67
2022/12/01 00:06:17;;;;;;;10.13;7.47;;;;;;;4.14;54.68;100504.09;10548462;28;20242;-67
2022/12/01 00:11:19;;;;;;;11.63;8.10;;;;;;;4.08;54.86;100496.66;10539949;28;20265;-67
2022/12/01 00:16:20;;;;;;;11.43;8.33;;;;;;;3.49;56.04;100487.22;10541720;28;20230;-67
2022/12/01 00:21:23;;;;;;;11.57;8.43;;;;;;;3.08;57.10;100476.28;10551788;28;20820;-67
2022/12/01 00:26:26;;;;;;;13.57;9.43;;;;;;;3.81;56.31;100487.31;10553167;28;20238;-69
2022/12/01 00:31:27;;;;;;;13.70;9.57;;;;;;;3.68;56.14;100490.09;10558316;28;20245;-67
2022/12/01 00:36:29;;;;;;;11.70;8.53;;;;;;;3.51;55.70;100499.34;10557962;28;20266;-69
2022/12/01 00:41:31;;;;;;;13.07;8.87;;;;;;;3.71;55.70;100507.53;10557580;28;20234;-67
2022/12/01 00:46:32;;;;;;;11.53;8.40;;;;;;;4.12;54.58;100500.72;10555308;28;20234;-67
2022/12/01 00:51:34;;;;;;;13.33;8.43;;;;;;;4.31;54.46;100497.44;10557332;28;20716;-67
2022/12/01 00:56:35;;;;;;;14.50;10.93;;;;;;;3.94;54.15;100505.72;10552942;28;20221;-67
2022/12/01 01:01:37;;;;;;;12.00;8.37;;;;;;;3.54;55.48;100520.28;10552450;28;20452;-67
2022/12/01 01:06:42;;;;;;;14.20;9.30;;;;;;;4.37;53.95;100511.06;10556086;28;20238;-67
2022/12/01 01:11:43;;;;;;;13.33;9.53;;;;;;;3.52;55.09;100534.63;10536328;28;20237;-69
2022/12/01 01:16:45;;;;;;;13.23;9.67;;;;;;;3.61;54.63;100528.59;10555579;28;20236;-67
2022/12/01 01:21:47;;;;;;;13.03;9.40;;;;;;;3.36;54.79;100538.47;10547180;28;20284;-67
2022/12/01 01:26:48;;;;;;;12.90;8.63;;;;;;;3.40;54.68;100533.78;10554033;28;20735;-67
2022/12/01 01:31:50;;;;;;;10.90;7.80;;;;;;;2.90;54.97;100529.53;10555408;28;20247;-65
2022/12/01 01:36:51;;;;;;;10.93;8.07;;;;;;;3.39;54.60;100545.31;10554607;28;20236;-67
2022/12/01 01:41:53;;;;;;;10.77;7.87;;;;;;;3.24;54.21;100548.19;10555029;28;20244;-66
2022/12/01 01:46:55;;;;;;;12.50;9.57;;;;;;;3.61;54.04;100560.34;10551719;28;20602;-69
2022/12/01 01:51:57;;;;;;;12.03;9.03;;;;;;;3.60;53.96;100569.28;10555499;28;20226;-67
2022/12/01 01:57:00;;;;;;;14.37;9.70;;;;;;;3.29;54.08;100555.75;10556515;28;20237;-69
2022/12/01 02:02:05;;;;;;;16.00;9.10;;;;;;;2.46;54.83;100549.56;10556572;28;20235;-67
2022/12/01 02:07:08;;;;;;;14.20;9.83;;;;;;;4.01;53.18;100546.63;10531638;28;20241;-67
2022/12/01 02:12:28;;;;;;;13.77;10.03;;;;;;;3.40;54.18;100561.06;10537322;28;20249;-67
2022/12/01 02:17:54;;;;;;;15.53;10.93;;;;;;;3.50;53.70;100557.72;10535008;28;20271;-67
2022/12/01 02:23:11;;;;;;;16.23;11.63;;;;;;;3.50;54.02;100555.91;10551087;28;20242;-67
2022/12/01 02:28:40;;;;;;;16.57;11.13;;;;;;;3.11;54.00;100547.44;10546762;28;20279;-67
2022/12/01 02:33:56;;;;;;;15.77;10.93;;;;;;;3.06;53.88;100546.94;10552291;28;20234;-67
2022/12/01 02:39:05;;;;;;;17.30;11.63;;;;;;;3.09;53.57;100546.69;10550054;28;20858;-66
2022/12/01 02:44:26;;;;;;;16.90;11.63;;;;;;;2.83;54.60;100536.25;10542484;28;20313;-69
2022/12/01 02:49:33;;;;;;;17.13;11.83;;;;;;;3.99;52.92;100536.16;10552100;28;20259;-69
2022/12/01 02:54:36;;;;;;;17.40;11.50;;;;;;;2.44;54.97;100526.88;10552825;28;20278;-69
2022/12/01 02:59:41;;;;;;;16.53;11.57;;;;;;;2.80;54.81;100536.50;10546409;28;20234;-67
2022/12/01 03:05:04;;;;;;;17.17;12.33;;;;;;;3.20;54.23;100541.44;10547625;28;20236;-69
2022/12/01 03:10:54;;;;;;;17.60;11.83;;;;;;;2.87;54.22;100555.38;10529021;28;20291;-69
2022/12/01 03:15:56;;;;;;;17.83;12.53;;;;;;;2.33;54.51;100525.00;10481263;28;20230;-67
2022/12/01 03:21:09;;;;;;;16.83;11.20;;;;;;;2.86;54.37;100529.91;10552109;28;20236;-66
2022/12/01 03:26:16;;;;;;;15.20;11.03;;;;;;;3.03;54.42;100537.44;10547746;28;20238;-70
2022/12/01 03:31:21;;;;;;;17.33;11.80;;;;;;;2.68;55.35;100535.59;10550196;28;20244;-67
2022/12/01 03:36:44;;;;;;;18.07;11.07;;;;;;;2.99;54.85;100527.19;10547971;28;20240;-69
2022/12/01 03:41:56;;;;;;;16.27;11.27;;;;;;;3.59;53.28;100526.06;10553051;28;20237;-67
2022/12/01 03:47:06;;;;;;;16.40;11.93;;;;;;;2.72;54.34;100555.59;10555194;28;20260;-67
2022/12/01 03:52:18;;;;;;;18.47;13.37;;;;;;;2.83;54.49;100540.72;10552075;28;20233;-67
2022/12/01 03:57:28;;;;;;;19.13;13.63;;;;;;;3.16;53.74;100544.44;10558937;28;20234;-69
2022/12/01 04:02:29;;;;;;;17.10;11.97;;;;;;;3.81;52.87;100533.16;10559283;28;20236;-67
2022/12/01 04:07:31;;;;;;;18.97;13.60;;;;;;;2.54;54.04;100549.84;10558483;28;20241;-69
2022/12/01 04:12:33;;;;;;;16.97;12.27;;;;;;;3.32;52.50;100544.94;10538631;28;20230;-68
2022/12/01 04:17:35;;;;;;;17.30;12.33;;;;;;;4.18;52.06;100527.56;10556245;28;20591;-67
2022/12/01 04:22:37;;;;;;;15.23;12.33;;;;;;;3.86;51.91;100526.66;10553576;28;20245;-67
2022/12/01 04:27:39;;;;;;;15.87;11.47;;;;;;;3.45;52.78;100564.19;10558150;28;20237;-67
2022/12/01 04:32:42;;;;;;;16.17;11.93;;;;;;;3.51;53.05;100557.59;10557706;28;20613;-67
2022/12/01 04:37:43;;;;;;;19.77;12.20;;;;;;;3.96;52.01;100562.03;10511365;27;20225;-70
2022/12/01 04:42:45;;;;;;;18.40;12.83;;;;;;;3.16;53.34;100582.31;10560912;28;20228;-67
2022/12/01 04:47:47;;;;;;;16.60;12.33;;;;;;;3.63;52.22;100558.44;10538886;28;20632;-67
2022/12/01 04:52:48;;;;;;;15.83;11.90;;;;;;;4.49;50.83;100529.53;10543354;28;20230;-67
2022/12/01 04:57:50;;;;;;;17.17;12.23;;;;;;;3.11;53.17;100565.97;10553656;28;20810;-66
2022/12/01 05:05:11;;;;;;;21.70;12.67;;;;;;;1.37;56.95;100538.84;10365095;28;20797;-66
2022/12/01 05:10:13;;;;;;;17.20;13.07;;;;;;;1.29;56.57;100528.81;10347187;28;20230;-66
2022/12/01 05:15:15;;;;;;;19.27;13.30;;;;;;;1.45;56.79;100531.25;10437901;28;20228;-65
2022/12/01 05:25:41;;;;;;;18.83;13.10;;;;;;;2.54;54.49;100518.16;10481378;28;20227;-66
2022/12/01 05:30:43;;;;;;;22.30;13.00;;;;;;;1.71;55.31;100549.69;10309168;28;20238;-66
2022/12/01 05:35:46;;;;;;;18.37;12.83;;;;;;;2.13;54.92;100539.66;10472791;28;20230;-66
2022/12/01 05:40:54;;;;;;;18.57;13.60;;;;;;;1.49;56.09;100550.34;10523556;28;20322;-66
2022/12/01 05:45:56;;;;;;;19.07;13.57;;;;;;;2.17;54.43;100527.94;10529567;28;20718;-66
2022/12/01 05:50:58;;;;;;;25.60;15.70;;;;;;;3.08;54.04;100514.13;10521053;28;20676;-66
2022/12/01 05:56:00;;;;;;;25.93;15.27;;;;;;;2.80;53.97;100525.09;10524850;28;20583;-66
2022/12/01 06:01:02;;;;;;;22.67;15.37;;;;;;;2.94;54.44;100524.06;10518200;28;20598;-66
2022/12/01 06:06:04;;;;;;;20.70;13.50;;;;;;;2.41;54.71;100537.66;10513758;28;20237;-66
2022/12/01 06:11:06;;;;;;;21.67;14.67;;;;;;;2.71;54.53;100534.56;10523105;28;20250;-66
2022/12/01 06:16:07;;;;;;;21.40;12.97;;;;;;;2.98;54.42;100523.72;10493101;28;20316;-66
2022/12/01 06:21:09;;;;;;;19.33;13.33;;;;;;;2.52;54.97;100546.50;10488078;28;20703;-66
2022/12/01 06:26:11;;;;;;;18.17;12.33;;;;;;;2.41;54.99;100551.72;10486997;28;20227;-68
2022/12/01 06:31:12;;;;;;;19.07;13.47;;;;;;;2.45;55.37;100552.31;10502224;28;20234;-66
2022/12/01 06:36:14;;;;;;;23.80;14.30;;;;;;;3.54;53.94;100527.41;10497197;28;20232;-66
2022/12/01 06:41:16;;;;;;;19.73;13.23;;;;;;;2.68;55.93;100561.19;10491720;28;20235;-66
2022/12/01 06:46:17;;;;;;;18.60;13.77;;;;;;;2.99;55.16;100543.06;10489501;28;20238;-66
2022/12/01 06:51:19;;;;;;;18.30;13.43;;;;;;;3.03;55.03;100550.66;10490977;28;20699;-66
2022/12/01 06:56:22;;;;;;;20.90;14.23;;;;;;;3.19;54.58;100560.06;10488529;28;20222;-66
2022/12/01 07:01:24;;;;;;;17.80;12.10;;;;;;;2.37;55.40;100589.88;10486177;28;20326;-66
2022/12/01 07:06:27;;;;;;;15.93;11.20;;;;;;;2.22;54.90;100596.28;10494612;28;20237;-66
2022/12/01 07:11:31;;;;;;;15.67;11.87;;;;;;;2.17;54.65;100586.03;10490209;28;20224;-66
2022/12/01 07:16:32;;;;;;;16.53;11.83;;;;;;;2.51;54.20;100575.66;10491327;28;20280;-68
2022/12/01 07:21:34;;;;;;;18.60;12.73;;;;;;;2.34;54.47;100596.22;10486441;28;20321;-68
2022/12/01 07:26:35;;;;;;;17.87;12.90;;;;;;;2.10;54.44;100603.28;10488921;28;20225;-68
2022/12/01 07:31:38;;;;;;;15.60;11.47;;;;;;;2.72;53.72;100605.81;10487935;28;20262;-65
2022/12/01 07:36:39;;;;;;;16.23;12.00;;;;;;;2.45;53.60;100613.94;10489298;28;20246;-67
2022/12/01 07:41:41;;;;;;;14.40;10.77;;;;;;;2.79;53.57;100611.47;10489103;28;20231;-67
2022/12/01 07:46:42;;;;;;;14.97;10.60;;;;;;;2.51;53.36;100605.56;10487980;28;20233;-66
2022/12/01 07:51:44;;;;;;;12.43;9.97;;;;;;;3.24;53.20;100597.59;10488861;28;20702;-65
2022/12/01 07:56:46;;;;;;;14.23;10.23;;;;;;;2.94;53.00;100606.03;10488143;28;20211;-65
2022/12/01 08:01:47;;;;;;;14.97;10.47;;;;;;;3.59;52.50;100592.25;10485146;28;20330;-65
2022/12/01 08:06:49;;;;;;;14.97;10.07;;;;;;;3.04;52.68;100609.66;10488892;28;20257;-65
2022/12/01 08:11:51;;;;;;;13.13;9.63;;;;;;;3.78;51.50;100589.03;10492271;28;20253;-68
2022/12/01 08:16:52;;;;;;;12.83;9.33;;;;;;;4.17;51.54;100593.91;10487664;28;20215;-66
2022/12/01 08:21:54;;;;;;;16.33;10.10;;;;;;;3.58;52.11;100621.47;10490709;28;20284;-66
2022/12/01 08:26:56;;;;;;;12.87;9.97;;;;;;;4.30;51.33;100612.31;10490552;28;20582;-67
2022/12/01 08:31:58;;;;;;;14.63;10.40;;;;;;;3.34;52.41;100634.78;10488225;28;20227;-67
2022/12/01 08:36:59;;;;;;;12.73;9.30;;;;;;;3.52;52.67;100651.91;10486257;28;20663;-65
2022/12/01 08:42:01;;;;;;;12.60;9.50;;;;;;;3.61;52.92;100656.50;10486987;28;20231;-66
2022/12/01 08:47:03;;;;;;;13.47;8.50;;;;;;;4.07;51.64;100635.34;10483280;28;20293;-66
2022/12/01 08:52:04;;;;;;;15.27;10.33;;;;;;;3.56;52.29;100653.34;10485983;28;20243;-66
2022/12/01 08:57:06;;;;;;;12.40;9.70;;;;;;;4.47;51.00;100634.84;10486948;28;20257;-66
2022/12/01 09:02:13;;;;;;;13.53;9.27;;;;;;;3.94;52.42;100667.25;10486517;28;20246;-65
2022/12/01 09:07:15;;;;;;;12.63;8.67;;;;;;;4.27;52.10;100645.22;10486673;28;20258;-66
2022/12/01 09:12:27;;;;;;;14.00;9.87;;;;;;;3.54;53.03;100687.03;10489043;28;20235;-65
2022/12/01 09:17:28;;;;;;;12.40;9.47;;;;;;;3.49;52.38;100681.25;10492433;28;20239;-65
2022/12/01 09:22:30;;;;;;;12.57;9.50;;;;;;;3.75;52.43;100681.06;10492146;28;20241;-66
2022/12/01 09:27:32;;;;;;;13.83;10.03;;;;;;;4.47;51.38;100662.19;10486620;28;20235;-65
2022/12/01 09:32:33;;;;;;;12.17;9.13;;;;;;;4.04;52.34;100668.22;10483939;28;20239;-66
2022/12/01 09:37:35;;;;;;;12.10;9.23;;;;;;;4.02;52.49;100676.28;10485056;28;20727;-66
2022/12/01 09:42:37;;;;;;;13.27;10.00;;;;;;;3.45;52.67;100695.69;10487766;28;20229;-66
2022/12/01 09:47:41;;;;;;;15.37;10.07;;;;;;;3.22;52.85;100687.66;10485649;28;20235;-66
2022/12/01 09:52:49;;;;;;;12.93;9.63;;;;;;;3.54;53.26;100696.78;10496619;28;20842;-65
2022/12/01 09:57:53;;;;;;;12.70;9.87;;;;;;;4.07;51.41;100656.53;10491841;28;20234;-66
2022/12/01 10:02:58;;;;;;;13.37;10.40;;;;;;;2.45;53.89;100693.22;10490352;28;20252;-68
2022/12/01 10:08:04;;;;;;;19.47;14.63;;;;;;;4.04;52.42;100668.22;10495602;28;20223;-65
2022/12/01 10:13:22;;;;;;;322.63;188.03;;;;;;;2.74;53.62;100679.69;10497370;28;20227;-65
2022/12/01 10:18:40;;;;;;;19.37;16.10;;;;;;;2.66;53.67;100679.41;10497788;28;20291;-65
2022/12/01 10:23:52;;;;;;;15.33;10.93;;;;;;;3.69;52.71;100657.72;10480669;28;20254;-67
2022/12/01 10:29:22;;;;;;;14.37;10.67;;;;;;;4.18;52.12;100622.94;10460885;28;20741;-65
2022/12/01 10:34:37;;;;;;;14.20;9.80;;;;;;;4.05;52.10;100637.28;10487614;28;20245;-65
2022/12/01 10:39:43;;;;;;;15.40;10.90;;;;;;;4.05;52.41;100634.63;10488445;28;20249;-65
2022/12/01 10:44:46;;;;;;;13.90;10.13;;;;;;;4.03;52.35;100611.72;10491089;28;20611;-67
2022/12/01 10:49:48;;;;;;;14.77;10.37;;;;;;;4.29;51.90;100608.84;10467439;28;20234;-65
2022/12/01 10:54:50;;;;;;;14.60;9.63;;;;;;;4.42;51.41;100599.94;10490532;28;20238;-65
2022/12/01 10:59:56;;;;;;;19.03;10.57;;;;;;;4.27;52.13;100608.13;10492648;28;20277;-65
2022/12/01 11:06:11;;;;;;;14.57;10.67;;;;;;;1.53;57.29;100586.97;10517099;27;20721;-68
2022/12/01 11:11:24;;;;;;;14.97;10.43;;;;;;;2.15;56.39;100572.94;10519881;28;20235;-65
2022/12/01 11:16:38;;;;;;;16.47;11.33;;;;;;;2.98;54.66;100533.47;10472255;28;20995;-67
2022/12/01 11:21:47;;;;;;;19.83;17.20;;;;;;;3.17;54.85;100540.84;10421815;28;20226;-65
2022/12/01 11:26:49;;;;;;;18.30;14.10;;;;;;;3.49;54.05;100540.97;10479944;28;20238;-66
2022/12/01 11:31:51;;;;;;;14.27;10.77;;;;;;;3.49;55.18;100526.91;10531101;28;20654;-66
2022/12/01 11:36:57;;;;;;;15.37;11.30;;;;;;;3.62;54.38;100514.41;10548203;28;20881;-66
2022/12/01 11:42:05;;;;;;;44.77;38.00;;;;;;;2.98;54.95;100536.94;10469646;28;20314;-66
2022/12/01 11:47:24;;;;;;;19.33;16.67;;;;;;;3.10;55.61;100537.81;10445474;28;21217;-68
2022/12/01 11:52:30;;;;;;;23.50;18.27;;;;;;;2.36;56.69;100545.91;10516734;28;20245;-66
2022/12/01 11:57:32;;;;;;;22.73;15.17;;;;;;;3.31;54.98;100513.31;10516599;28;20865;-66
2022/12/01 12:03:14;;;;;;;25.40;19.20;;;;;;;3.36;55.20;100513.78;10516831;28;20280;-66
2022/12/01 12:09:06;;;;;;;16.67;11.80;;;;;;;2.86;56.24;100530.75;10492226;28;20239;-68
2022/12/01 12:14:34;;;;;;;16.93;10.97;;;;;;;3.33;55.41;100506.94;10256844;28;20234;-66
2022/12/01 12:19:39;;;;;;;19.87;12.43;;;;;;;2.43;57.09;100538.38;10355171;28;20243;-66
2022/12/01 12:25:03;;;;;;;20.23;12.57;;;;;;;2.83;56.14;100523.03;9424362;28;10000207;-68
2022/12/01 12:30:19;;;;;;;18.07;12.60;;;;;;;3.09;55.76;100515.81;10429751;28;20235;-66
